^^
Grace C. Lehan Memorial Weather Station Historical Data
Daily Summary for May 2, 2021 Units:  Both    English   Metric
Daily Weekly Monthly Yearly
  High: Low: Average:
Temperature: 50.9 °F /  10.5 °C 33.4 °F /  0.8 °C 38.6 °F /  3.7 °C
Dew Point: 44.7 °F /  7.1 °C 30 °F /  -1.1 °C 34.9 °F /  1.6 °C
Humidity: 97% 67.3% 87%
Wind Speed: 12.9mph /  20.8km/h - 1.8mph /  2.9km/h
Wind Gust: 27mph /  43.5km/h - -
Wind- - NW
Pressure: 30.08 in /  1018.5 hPa 29.68 in /  1005 hPa -
Precipitation: 0.23 in /  5.84 mm    
 
 
Tabular Data for May 2, 2021
Time Temperature Dew Point Pressure Wind Wind Speed Wind Gust Humidity Rainfall Rate (Hourly) solar
00:04 33.7 °F /  0.9 °C 31.9 °F /  -0.1 °C 30.06in /  1017.8hPa Calm     93% 0.07in /  1.78mm 0 W/m2
00:09 33.7 °F /  0.9 °C 31.9 °F /  -0.1 °C 30.05in /  1017.5hPa Calm     93% 0.01in /  0.25mm 0 W/m2
00:14 33.8 °F /  1 °C 32.1 °F /  0.1 °C 30.03in /  1016.8hPa Calm     93.3% 0.02in /  0.51mm 0 W/m2
00:19 33.8 °F /  1 °C 32.3 °F /  0.2 °C 30.03in /  1016.8hPa Calm     94% 0.02in /  0.51mm 0 W/m2
00:24 33.8 °F /  1 °C 32.2 °F /  0.1 °C 30.03in /  1016.8hPa Calm     94% 0.03in /  0.76mm 0 W/m2
00:29 33.8 °F /  1 °C 32.3 °F /  0.2 °C 30.03in /  1016.8hPa Calm     94% 0.04in /  1.02mm 0 W/m2
00:34 33.8 °F /  1 °C 32.3 °F /  0.2 °C 30.02in /  1016.5hPa Calm     94% 0.04in /  1.02mm 0 W/m2
00:39 33.9 °F /  1.1 °C 32.3 °F /  0.2 °C 30.02in /  1016.5hPa Calm     94% 0.05in /  1.27mm 0 W/m2
00:44 33.9 °F /  1.1 °C 32.4 °F /  0.2 °C 30.02in /  1016.5hPa Calm     94% 0.05in /  1.27mm 0 W/m2
00:49 33.9 °F /  1.1 °C 32.4 °F /  0.2 °C 30.00in /  1015.8hPa Calm     94% 0.06in /  1.52mm 0 W/m2
00:54 33.9 °F /  1.1 °C 32.4 °F /  0.2 °C 30.00in /  1015.8hPa Calm     94% 0.06in /  1.52mm 0 W/m2
00:59 33.9 °F /  1.1 °C 32.4 °F /  0.2 °C 30.00in /  1015.8hPa Calm     94% 0.07in /  1.78mm 0 W/m2
01:04 34 °F /  1.1 °C 32.4 °F /  0.2 °C 30.00in /  1015.8hPa Calm     94% 0.07in /  1.78mm 0 W/m2
01:09 34 °F /  1.1 °C 32.5 °F /  0.3 °C 29.99in /  1015.5hPa Calm     94% 0.07in /  1.78mm 0 W/m2
01:14 34 °F /  1.1 °C 32.5 °F /  0.3 °C 29.98in /  1015.1hPa Calm     94% 0.08in /  2.03mm 0 W/m2
01:19 34 °F /  1.1 °C 32.4 °F /  0.2 °C 29.98in /  1015.1hPa Calm     94% 0.08in /  2.03mm 0 W/m2
01:24 34 °F /  1.1 °C 32.5 °F /  0.3 °C 29.98in /  1015.1hPa Calm     94% 0.09in /  2.29mm 0 W/m2
01:29 34 °F /  1.1 °C 32.5 °F /  0.3 °C 29.98in /  1015.1hPa Calm     94% 0.10in /  2.54mm 0 W/m2
01:34 34 °F /  1.1 °C 32.5 °F /  0.3 °C 29.98in /  1015.1hPa Calm     94% 0.10in /  2.54mm 0 W/m2
01:39 34 °F /  1.1 °C 32.5 °F /  0.3 °C 29.98in /  1015.1hPa Calm     94% 0.07in /  1.78mm 0 W/m2
01:44 34 °F /  1.1 °C 32.5 °F /  0.3 °C 29.97in /  1014.8hPa Calm     94% 0.07in /  1.78mm 0 W/m2
01:49 34 °F /  1.1 °C 32.5 °F /  0.3 °C 29.97in /  1014.8hPa Calm     94% 0.08in /  2.03mm 0 W/m2
01:54 34.1 °F /  1.2 °C 32.6 °F /  0.3 °C 29.96in /  1014.4hPa Calm     94% 0.08in /  2.03mm 0 W/m2
01:59 34.1 °F /  1.2 °C 32.6 °F /  0.3 °C 29.96in /  1014.4hPa Calm     94% 0.08in /  2.03mm 0 W/m2
02:04 34.1 °F /  1.2 °C 32.6 °F /  0.3 °C 29.96in /  1014.4hPa Calm     94% 0.08in /  2.03mm 0 W/m2
02:09 34.1 °F /  1.2 °C 32.6 °F /  0.3 °C 29.95in /  1014.1hPa Calm     94% 0.06in /  1.52mm 0 W/m2
02:14 34 °F /  1.1 °C 32.5 °F /  0.3 °C 29.94in /  1013.8hPa Calm     94% 0.06in /  1.52mm 0 W/m2
02:19 34 °F /  1.1 °C 32.5 °F /  0.3 °C 29.93in /  1013.4hPa Calm     94% 0.06in /  1.52mm 0 W/m2
02:24 34 °F /  1.1 °C 32.5 °F /  0.3 °C 29.93in /  1013.4hPa Calm     94% 0.06in /  1.52mm 0 W/m2
02:29 34.1 °F /  1.2 °C 32.8 °F /  0.4 °C 29.92in /  1013.1hPa Calm     95% 0.06in /  1.52mm 0 W/m2
02:34 34.1 °F /  1.2 °C 32.8 °F /  0.4 °C 29.92in /  1013.1hPa Calm     95% 0.06in /  1.52mm 0 W/m2
02:39 34.1 °F /  1.2 °C 32.8 °F /  0.4 °C 29.92in /  1013.1hPa Calm     95% 0.04in /  1.02mm 0 W/m2
02:44 34.1 °F /  1.2 °C 32.8 °F /  0.4 °C 29.91in /  1012.8hPa Calm     95% 0.04in /  1.02mm 0 W/m2
02:49 34.1 °F /  1.2 °C 32.8 °F /  0.4 °C 29.91in /  1012.8hPa Calm     95% 0.04in /  1.02mm 0 W/m2
02:54 34.1 °F /  1.2 °C 32.8 °F /  0.4 °C 29.90in /  1012.4hPa Calm     95% 0.04in /  1.02mm 0 W/m2
02:59 34.1 °F /  1.2 °C 32.8 °F /  0.4 °C 29.90in /  1012.4hPa Calm     95% 0.05in /  1.27mm 0 W/m2
03:04 34.2 °F /  1.2 °C 32.9 °F /  0.5 °C 29.89in /  1012.1hPa Calm     95% 0.05in /  1.27mm 0 W/m2
03:09 34.2 °F /  1.2 °C 32.9 °F /  0.5 °C 29.89in /  1012.1hPa Calm     95% 0.04in /  1.02mm 0 W/m2
03:14 34.2 °F /  1.2 °C 32.9 °F /  0.5 °C 29.88in /  1011.7hPa Calm     95% 0.04in /  1.02mm 0 W/m2
03:19 34.2 °F /  1.2 °C 32.9 °F /  0.5 °C 29.87in /  1011.4hPa Calm     95% 0.05in /  1.27mm 0 W/m2
03:24 34.3 °F /  1.3 °C 33 °F /  0.6 °C 29.86in /  1011.1hPa Calm     95% 0.05in /  1.27mm 0 W/m2
03:29 34.3 °F /  1.3 °C 33 °F /  0.6 °C 29.85in /  1010.7hPa Calm     95% 0.05in /  1.27mm 0 W/m2
03:34 34.3 °F /  1.3 °C 33 °F /  0.6 °C 29.85in /  1010.7hPa Calm     95% 0.05in /  1.27mm 0 W/m2
03:39 34.3 °F /  1.3 °C 33 °F /  0.6 °C 29.84in /  1010.4hPa Calm     95% 0.04in /  1.02mm 0 W/m2
03:44 34.3 °F /  1.3 °C 33 °F /  0.6 °C 29.83in /  1010hPa Calm     95% 0.05in /  1.27mm 0 W/m2
03:49 34.3 °F /  1.3 °C 33 °F /  0.6 °C 29.83in /  1010hPa Calm     95% 0.05in /  1.27mm 0 W/m2
03:54 34.3 °F /  1.3 °C 33 °F /  0.6 °C 29.82in /  1009.7hPa Calm     95% 0.06in /  1.52mm 0 W/m2
03:59 34.4 °F /  1.3 °C 33.1 °F /  0.6 °C 29.82in /  1009.7hPa Calm     95% 0.06in /  1.52mm 0 W/m2
04:04 34.4 °F /  1.3 °C 33.1 °F /  0.6 °C 29.81in /  1009.4hPa Calm     95% 0.07in /  1.78mm 0 W/m2
04:09 34.4 °F /  1.3 °C 33.1 °F /  0.6 °C 29.81in /  1009.4hPa Calm     95% 0.07in /  1.78mm 0 W/m2
04:14 34.5 °F /  1.4 °C 33.2 °F /  0.7 °C 29.80in /  1009hPa Calm     95% 0.07in /  1.78mm 0 W/m2
04:19 34.5 °F /  1.4 °C 33.2 °F /  0.7 °C 29.80in /  1009hPa Calm     95% 0.08in /  2.03mm 0 W/m2
04:24 34.5 °F /  1.4 °C 33.2 °F /  0.7 °C 29.80in /  1009hPa Calm     95% 0.08in /  2.03mm 0 W/m2
04:29 34.5 °F /  1.4 °C 33.2 °F /  0.7 °C 29.79in /  1008.7hPa Calm     95% 0.08in /  2.03mm 0 W/m2
04:34 34.5 °F /  1.4 °C 33.2 °F /  0.7 °C 29.78in /  1008.4hPa Calm     95% 0.08in /  2.03mm 0 W/m2
04:39 34.5 °F /  1.4 °C 33.2 °F /  0.7 °C 29.77in /  1008hPa Calm     95% 0.04in /  1.02mm 0 W/m2
04:44 34.5 °F /  1.4 °C 33.2 °F /  0.7 °C 29.77in /  1008hPa Calm     95% 0.05in /  1.27mm 0 W/m2
04:49 34.5 °F /  1.4 °C 33.2 °F /  0.7 °C 29.76in /  1007.7hPa Calm     95% 0.05in /  1.27mm 0 W/m2
04:54 34.5 °F /  1.4 °C 33.2 °F /  0.7 °C 29.75in /  1007.3hPa Calm     95% 0.05in /  1.27mm 0 W/m2
04:59 34.6 °F /  1.4 °C 33.3 °F /  0.7 °C 29.75in /  1007.3hPa Calm     95% 0.05in /  1.27mm 0 W/m2
05:04 34.6 °F /  1.4 °C 33.3 °F /  0.7 °C 29.74in /  1007hPa Calm     95% 0.05in /  1.27mm 0 W/m2
05:09 34.6 °F /  1.4 °C 33.3 °F /  0.7 °C 29.73in /  1006.7hPa Calm     95% 0.01in /  0.25mm 0 W/m2
05:14 34.6 °F /  1.4 °C 33.3 °F /  0.7 °C 29.73in /  1006.7hPa Calm     95% 0.01in /  0.25mm 0 W/m2
05:19 34.7 °F /  1.5 °C 33.4 °F /  0.8 °C 29.73in /  1006.7hPa Calm     95% 0.01in /  0.25mm 0 W/m2
05:24 34.7 °F /  1.5 °C 33.4 °F /  0.8 °C 29.72in /  1006.3hPa Calm     95% 0.01in /  0.25mm 0 W/m2
05:29 34.7 °F /  1.5 °C 33.6 °F /  0.9 °C 29.72in /  1006.3hPa Calm     95.5% 0.01in /  0.25mm 0 W/m2
05:34 34.8 °F /  1.6 °C 33.8 °F /  1 °C 29.72in /  1006.3hPa Calm     96% 0.02in /  0.51mm 0 W/m2
05:39 34.9 °F /  1.6 °C 33.9 °F /  1.1 °C 29.72in /  1006.3hPa Calm     96% 0.02in /  0.51mm 0 W/m2
05:44 35 °F /  1.7 °C 33.9 °F /  1.1 °C 29.72in /  1006.3hPa Calm     95.5% 0.02in /  0.51mm 0 W/m2
05:49 35.1 °F /  1.7 °C 33.8 °F /  1 °C 29.72in /  1006.3hPa Calm     95% 0.02in /  0.51mm 0 W/m2
05:54 35.2 °F /  1.8 °C 33.9 °F /  1.1 °C 29.73in /  1006.7hPa NNW 0.8mph /  1.3km/h 5mph /  8km/h 95% 0.02in /  0.51mm 0 W/m2
05:59 35.2 °F /  1.8 °C 34 °F /  1.1 °C 29.73in /  1006.7hPa NNW 1.1mph /  1.8km/h 5mph /  8km/h 95.3% 0.02in /  0.51mm 0 W/m2
06:04 35.3 °F /  1.8 °C 34.2 °F /  1.2 °C 29.72in /  1006.3hPa NNW 0.6mph /  1km/h 5mph /  8km/h 95.9% 0.02in /  0.51mm 0 W/m2
06:09 35.3 °F /  1.8 °C 34.3 °F /  1.3 °C 29.71in /  1006hPa NNW 2.1mph /  3.4km/h 6mph /  9.7km/h 96% 0.01in /  0.25mm 0 W/m2
06:14 35.3 °F /  1.8 °C 34.3 °F /  1.3 °C 29.71in /  1006hPa NNW 1.8mph /  2.9km/h 6mph /  9.7km/h 96% 0.01in /  0.25mm 0 W/m2
06:19 35.4 °F /  1.9 °C 34.4 °F /  1.3 °C 29.71in /  1006hPa NNW 0.3mph /  0.5km/h 6mph /  9.7km/h 96% 0.02in /  0.51mm 0 W/m2
06:24 35.4 °F /  1.9 °C 34.4 °F /  1.3 °C 29.70in /  1005.6hPa NNW 0.7mph /  1.1km/h 6mph /  9.7km/h 96% 0.02in /  0.51mm 0 W/m2
06:29 35.5 °F /  1.9 °C 34.4 °F /  1.3 °C 29.70in /  1005.6hPa NNW 0.6mph /  1km/h 6mph /  9.7km/h 96% 0.02in /  0.51mm 0 W/m2
06:34 35.5 °F /  1.9 °C 34.5 °F /  1.4 °C 29.69in /  1005.3hPa NNW 1.1mph /  1.8km/h 6mph /  9.7km/h 96% 0.02in /  0.51mm 0 W/m2
06:39 35.5 °F /  1.9 °C 34.5 °F /  1.4 °C 29.69in /  1005.3hPa NNW 0.8mph /  1.3km/h 6mph /  9.7km/h 96% 0.02in /  0.51mm 0 W/m2
06:44 35.5 °F /  1.9 °C 34.5 °F /  1.4 °C 29.69in /  1005.3hPa NNW 1.5mph /  2.4km/h 6mph /  9.7km/h 96% 0.02in /  0.51mm 0 W/m2
06:49 35.5 °F /  1.9 °C 34.5 °F /  1.4 °C 29.69in /  1005.3hPa NNW 1.1mph /  1.8km/h 6mph /  9.7km/h 96% 0.02in /  0.51mm 0 W/m2
06:54 35.5 °F /  1.9 °C 34.5 °F /  1.4 °C 29.70in /  1005.6hPa NNW 1.8mph /  2.9km/h 6mph /  9.7km/h 96% 0.02in /  0.51mm 0 W/m2
06:59 35.5 °F /  1.9 °C 34.5 °F /  1.4 °C 29.70in /  1005.6hPa NNW 1.1mph /  1.8km/h 8mph /  12.9km/h 96% 0.02in /  0.51mm 0 W/m2
07:04 35.5 °F /  1.9 °C 34.5 °F /  1.4 °C 29.70in /  1005.6hPa NW 0.9mph /  1.4km/h 8mph /  12.9km/h 96% 0.02in /  0.51mm 0 W/m2
07:09 35.6 °F /  2 °C 34.6 °F /  1.4 °C 29.70in /  1005.6hPa Calm   6mph /  9.7km/h 96% 0.01in /  0.25mm 0 W/m2
07:14 35.6 °F /  2 °C 34.6 °F /  1.4 °C 29.70in /  1005.6hPa NW 0.7mph /  1.1km/h 6mph /  9.7km/h 96% 0.01in /  0.25mm 0 W/m2
07:19 35.6 °F /  2 °C 34.6 °F /  1.4 °C 29.70in /  1005.6hPa NW 0.5mph /  0.8km/h 6mph /  9.7km/h 96% 0.01in /  0.25mm 0 W/m2
07:24 35.7 °F /  2.1 °C 34.7 °F /  1.5 °C 29.70in /  1005.6hPa NW 0.7mph /  1.1km/h 6mph /  9.7km/h 96% 0.01in /  0.25mm 0 W/m2
07:29 35.7 °F /  2.1 °C 34.7 °F /  1.5 °C 29.71in /  1006hPa NW 0.5mph /  0.8km/h 6mph /  9.7km/h 96% 0.01in /  0.25mm 0 W/m2
07:34 35.8 °F /  2.1 °C 34.8 °F /  1.6 °C 29.70in /  1005.6hPa Calm   6mph /  9.7km/h 96% 0.01in /  0.25mm 0 W/m2
07:39 35.8 °F /  2.1 °C 34.8 °F /  1.6 °C 29.71in /  1006hPa Calm   1mph /  1.6km/h 96% 0.00in /  0mm 0 W/m2
07:44 35.9 °F /  2.2 °C 34.9 °F /  1.6 °C 29.69in /  1005.3hPa Calm   1mph /  1.6km/h 96% 0.00in /  0mm 0 W/m2
07:49 35.9 °F /  2.2 °C 34.9 °F /  1.6 °C 29.71in /  1006hPa Calm   1mph /  1.6km/h 96% 0.00in /  0mm 5 W/m2
07:54 36 °F /  2.2 °C 35 °F /  1.7 °C 29.71in /  1006hPa Calm   1mph /  1.6km/h 96% 0.00in /  0mm 5 W/m2
07:59 36 °F /  2.2 °C 35 °F /  1.7 °C 29.72in /  1006.3hPa Calm   1mph /  1.6km/h 96% 0.00in /  0mm 7 W/m2
08:00 36.1 °F /  2.3 °C 35.1 °F /  1.7 °C 29.71in /  1006hPa Calm   1mph /  1.6km/h 96% 0.00in /  0mm 7 W/m2
08:09 36.1 °F /  2.3 °C 35.1 °F /  1.7 °C 29.71in /  1006hPa Calm     96% 0.00in /  0mm 14 W/m2
08:14 36.1 °F /  2.3 °C 35.1 °F /  1.7 °C 29.70in /  1005.6hPa Calm     96% 0.00in /  0mm 14 W/m2
08:19 36.1 °F /  2.3 °C 35.1 °F /  1.7 °C 29.70in /  1005.6hPa Calm     96% 0.00in /  0mm 21 W/m2
08:24 36.1 °F /  2.3 °C 35.1 °F /  1.7 °C 29.70in /  1005.6hPa Calm     96% 0.00in /  0mm 26 W/m2
08:29 36.1 °F /  2.3 °C 35.1 °F /  1.7 °C 29.70in /  1005.6hPa Calm     96% 0.00in /  0mm 28 W/m2
08:34 36.2 °F /  2.3 °C 35.1 °F /  1.7 °C 29.70in /  1005.6hPa Calm     96% 0.00in /  0mm 26 W/m2
08:39 36.2 °F /  2.3 °C 35.2 °F /  1.8 °C 29.70in /  1005.6hPa Calm     96% 0.00in /  0mm 46 W/m2
08:44 36.3 °F /  2.4 °C 35.2 °F /  1.8 °C 29.70in /  1005.6hPa Calm     96% 0.00in /  0mm 53 W/m2
08:49 36.3 °F /  2.4 °C 35.3 °F /  1.8 °C 29.70in /  1005.6hPa Calm     96% 0.00in /  0mm 26 W/m2
08:54 36.3 °F /  2.4 °C 35.3 °F /  1.8 °C 29.69in /  1005.3hPa NW 0.2mph /  0.3km/h 4mph /  6.4km/h 96% 0.00in /  0mm 81 W/m2
08:59 36.4 °F /  2.4 °C 35.4 °F /  1.9 °C 29.69in /  1005.3hPa NW 0.6mph /  1km/h 4mph /  6.4km/h 96% 0.00in /  0mm 98 W/m2
09:04 36.5 °F /  2.5 °C 35.5 °F /  1.9 °C 29.68in /  1005hPa WNW 0.1mph /  0.2km/h 4mph /  6.4km/h 96% 0.00in /  0mm 121 W/m2
09:09 36.7 °F /  2.6 °C 35.6 °F /  2 °C 29.68in /  1005hPa WNW 0.5mph /  0.8km/h 4mph /  6.4km/h 96% 0.00in /  0mm 121 W/m2
09:14 36.9 °F /  2.7 °C 35.8 °F /  2.1 °C 29.69in /  1005.3hPa WNW 0.2mph /  0.3km/h 4mph /  6.4km/h 96% 0.00in /  0mm 146 W/m2
09:19 37 °F /  2.8 °C 36 °F /  2.2 °C 29.69in /  1005.3hPa Calm   4mph /  6.4km/h 96% 0.00in /  0mm 111 W/m2
09:24 37.1 °F /  2.8 °C 36.1 °F /  2.3 °C 29.69in /  1005.3hPa WNW 0.1mph /  0.2km/h 4mph /  6.4km/h 96% 0.00in /  0mm 69 W/m2
09:29 37.3 °F /  2.9 °C 36.2 °F /  2.3 °C 29.69in /  1005.3hPa Calm   4mph /  6.4km/h 96% 0.00in /  0mm 86 W/m2
09:34 37.4 °F /  3 °C 36.4 °F /  2.4 °C 29.69in /  1005.3hPa Calm   4mph /  6.4km/h 96% 0.00in /  0mm 100 W/m2
09:39 37.7 °F /  3.2 °C 36.6 °F /  2.6 °C 29.69in /  1005.3hPa Calm     96% 0.00in /  0mm 91 W/m2
09:44 38 °F /  3.3 °C 36.9 °F /  2.7 °C 29.69in /  1005.3hPa Calm     96% 0.00in /  0mm 74 W/m2
09:49 38 °F /  3.3 °C 37 °F /  2.8 °C 29.69in /  1005.3hPa Calm     96% 0.00in /  0mm 88 W/m2
09:54 38 °F /  3.3 °C 37 °F /  2.8 °C 29.69in /  1005.3hPa Calm     96% 0.00in /  0mm 91 W/m2
09:59 38 °F /  3.3 °C 37 °F /  2.8 °C 29.69in /  1005.3hPa Calm     96% 0.00in /  0mm 77 W/m2
10:04 38.1 °F /  3.4 °C 37.1 °F /  2.8 °C 29.69in /  1005.3hPa Calm     96% 0.00in /  0mm 97 W/m2
10:09 38.3 °F /  3.5 °C 37.2 °F /  2.9 °C 29.69in /  1005.3hPa Calm     96% 0.00in /  0mm 118 W/m2
10:14 38.6 °F /  3.7 °C 37.5 °F /  3.1 °C 29.68in /  1005hPa Calm     96% 0.00in /  0mm 109 W/m2
10:19 38.8 °F /  3.8 °C 37.7 °F /  3.2 °C 29.68in /  1005hPa Calm     96% 0.00in /  0mm 295 W/m2
10:24 39.3 °F /  4.1 °C 38.3 °F /  3.5 °C 29.69in /  1005.3hPa Calm     96.4% 0.00in /  0mm 404 W/m2
10:29 40 °F /  4.4 °C 39.3 °F /  4.1 °C 29.69in /  1005.3hPa Calm     97% 0.00in /  0mm 404 W/m2
10:34 40.6 °F /  4.8 °C 39.8 °F /  4.3 °C 29.70in /  1005.6hPa WNW 0.3mph /  0.5km/h 3mph /  4.8km/h 97% 0.00in /  0mm 141 W/m2
10:39 40.9 °F /  4.9 °C 40.1 °F /  4.5 °C 29.70in /  1005.6hPa Calm   3mph /  4.8km/h 97% 0.00in /  0mm 121 W/m2
10:44 41.1 °F /  5.1 °C 40.3 °F /  4.6 °C 29.71in /  1006hPa WNW 0.1mph /  0.2km/h 3mph /  4.8km/h 97% 0.00in /  0mm 144 W/m2
10:49 41.4 °F /  5.2 °C 40.6 °F /  4.8 °C 29.70in /  1005.6hPa WNW 1mph /  1.6km/h 5mph /  8km/h 97% 0.00in /  0mm 149 W/m2
10:54 41.7 °F /  5.4 °C 40.9 °F /  4.9 °C 29.70in /  1005.6hPa WNW 0.6mph /  1km/h 5mph /  8km/h 97% 0.00in /  0mm 139 W/m2
10:59 42.3 °F /  5.7 °C 41.5 °F /  5.3 °C 29.70in /  1005.6hPa WNW 0.9mph /  1.4km/h 5mph /  8km/h 97% 0.00in /  0mm 218 W/m2
11:04 43.1 °F /  6.2 °C 42.3 °F /  5.7 °C 29.70in /  1005.6hPa WNW 0.6mph /  1km/h 4mph /  6.4km/h 97% 0.00in /  0mm 223 W/m2
11:09 43.8 °F /  6.6 °C 43 °F /  6.1 °C 29.69in /  1005.3hPa WNW 0.5mph /  0.8km/h 4mph /  6.4km/h 97% 0.00in /  0mm 163 W/m2
11:14 44.5 °F /  6.9 °C 43.7 °F /  6.5 °C 29.70in /  1005.6hPa WNW 0.5mph /  0.8km/h 4mph /  6.4km/h 97% 0.00in /  0mm 202 W/m2
11:19 44.7 °F /  7.1 °C 43.9 °F /  6.6 °C 29.70in /  1005.6hPa WNW 0.3mph /  0.5km/h 4mph /  6.4km/h 97% 0.00in /  0mm 83 W/m2
11:24 44.8 °F /  7.1 °C 44 °F /  6.7 °C 29.70in /  1005.6hPa Calm   4mph /  6.4km/h 97% 0.00in /  0mm 65 W/m2
11:29 44.9 °F /  7.2 °C 44.1 °F /  6.7 °C 29.70in /  1005.6hPa Calm   4mph /  6.4km/h 97% 0.00in /  0mm 137 W/m2
11:34 45.2 °F /  7.3 °C 44.3 °F /  6.8 °C 29.70in /  1005.6hPa Calm   4mph /  6.4km/h 96.6% 0.00in /  0mm 139 W/m2
11:39 45.4 °F /  7.4 °C 44.3 °F /  6.8 °C 29.70in /  1005.6hPa Calm     96% 0.00in /  0mm 114 W/m2
11:44 45.4 °F /  7.4 °C 44.2 °F /  6.8 °C 29.70in /  1005.6hPa Calm     95.4% 0.00in /  0mm 141 W/m2
11:49 45.4 °F /  7.4 °C 43.9 °F /  6.6 °C 29.69in /  1005.3hPa Calm     94.4% 0.00in /  0mm 141 W/m2
11:54 45.5 °F /  7.5 °C 43.7 °F /  6.5 °C 29.70in /  1005.6hPa Calm     93.4% 0.00in /  0mm 116 W/m2
11:59 45.9 °F /  7.7 °C 44 °F /  6.7 °C 29.70in /  1005.6hPa Calm   1mph /  1.6km/h 93.2% 0.00in /  0mm 47 W/m2
12:04 46.5 °F /  8.1 °C 44.3 °F /  6.8 °C 29.69in /  1005.3hPa Calm     92% 0.00in /  0mm 417 W/m2
12:09 46.7 °F /  8.2 °C 44.4 °F /  6.9 °C 29.69in /  1005.3hPa WNW 1mph /  1.6km/h 5mph /  8km/h 91.7% 0.00in /  0mm 424 W/m2
12:14 47.2 °F /  8.4 °C 44.6 °F /  7 °C 29.69in /  1005.3hPa WNW 4.2mph /  6.8km/h 14mph /  22.5km/h 90.7% 0.00in /  0mm 385 W/m2
12:19 47.6 °F /  8.7 °C 44.3 °F /  6.8 °C 29.69in /  1005.3hPa NW 4.4mph /  7.1km/h 16mph /  25.7km/h 88.4% 0.00in /  0mm 431 W/m2
12:24 48 °F /  8.9 °C 44.3 °F /  6.8 °C 29.70in /  1005.6hPa WNW 3.8mph /  6.1km/h 16mph /  25.7km/h 87% 0.00in /  0mm 348 W/m2
12:29 48.3 °F /  9.1 °C 44.7 °F /  7.1 °C 29.70in /  1005.6hPa NW 5.7mph /  9.2km/h 16mph /  25.7km/h 87.3% 0.00in /  0mm 100 W/m2
12:34 48.6 °F /  9.2 °C 44 °F /  6.7 °C 29.70in /  1005.6hPa WNW 5.9mph /  9.5km/h 16mph /  25.7km/h 84.1% 0.00in /  0mm 81 W/m2
12:39 48.7 °F /  9.3 °C 43.7 °F /  6.5 °C 29.70in /  1005.6hPa West 8.2mph /  13.2km/h 14mph /  22.5km/h 82.8% 0.00in /  0mm 364 W/m2
12:44 48.9 °F /  9.4 °C 43.6 °F /  6.4 °C 29.69in /  1005.3hPa WNW 6.2mph /  10km/h 14mph /  22.5km/h 82% 0.00in /  0mm 364 W/m2
12:49 49.3 °F /  9.6 °C 44 °F /  6.7 °C 29.70in /  1005.6hPa WNW 3.7mph /  6km/h 14mph /  22.5km/h 81.7% 0.00in /  0mm 519 W/m2
12:54 49.9 °F /  9.9 °C 44.1 °F /  6.7 °C 29.70in /  1005.6hPa WNW 6.9mph /  11.1km/h 19mph /  30.6km/h 80.3% 0.00in /  0mm 466 W/m2
12:59 50.3 °F /  10.2 °C 43.4 °F /  6.3 °C 29.71in /  1006hPa WNW 9.3mph /  15km/h 25mph /  40.2km/h 77% 0.00in /  0mm 343 W/m2
13:04 50.5 °F /  10.3 °C 43 °F /  6.1 °C 29.71in /  1006hPa WNW 8.7mph /  14km/h 25mph /  40.2km/h 75.1% 0.00in /  0mm 288 W/m2
13:09 50.8 °F /  10.4 °C 43.5 °F /  6.4 °C 29.71in /  1006hPa WNW 3.8mph /  6.1km/h 21mph /  33.8km/h 75.8% 0.00in /  0mm 274 W/m2
13:14 50.9 °F /  10.5 °C 43 °F /  6.1 °C 29.72in /  1006.3hPa WNW 10.9mph /  17.5km/h 27mph /  43.5km/h 74.4% 0.00in /  0mm 114 W/m2
13:19 50.3 °F /  10.2 °C 41.7 °F /  5.4 °C 29.72in /  1006.3hPa WNW 10.2mph /  16.4km/h 27mph /  43.5km/h 72.1% 0.00in /  0mm 98 W/m2
13:24 49.7 °F /  9.8 °C 41.7 °F /  5.4 °C 29.73in /  1006.7hPa NW 4.4mph /  7.1km/h 27mph /  43.5km/h 73.8% 0.00in /  0mm 139 W/m2
13:29 49.3 °F /  9.6 °C 41.1 °F /  5.1 °C 29.73in /  1006.7hPa NW 8.5mph /  13.7km/h 27mph /  43.5km/h 73.4% 0.00in /  0mm 139 W/m2
13:34 48.9 °F /  9.4 °C 40.7 °F /  4.8 °C 29.73in /  1006.7hPa NW 5.4mph /  8.7km/h 27mph /  43.5km/h 73.1% 0.00in /  0mm 366 W/m2
13:39 48.8 °F /  9.3 °C 40.6 °F /  4.8 °C 29.74in /  1007hPa WNW 8.5mph /  13.7km/h 20mph /  32.2km/h 73.3% 0.00in /  0mm 149 W/m2
13:44 48.8 °F /  9.3 °C 40.6 °F /  4.8 °C 29.74in /  1007hPa NW 5.7mph /  9.2km/h 20mph /  32.2km/h 73.1% 0.00in /  0mm 274 W/m2
13:49 48.9 °F /  9.4 °C 40.3 °F /  4.6 °C 29.75in /  1007.3hPa NW 8.2mph /  13.2km/h 20mph /  32.2km/h 72.2% 0.00in /  0mm 135 W/m2
13:54 48.5 °F /  9.2 °C 39.6 °F /  4.2 °C 29.75in /  1007.3hPa NW 10.7mph /  17.2km/h 23mph /  37km/h 71% 0.00in /  0mm 186 W/m2
13:59 48.1 °F /  8.9 °C 39.3 °F /  4.1 °C 29.76in /  1007.7hPa NW 8mph /  12.9km/h 23mph /  37km/h 71.5% 0.00in /  0mm 181 W/m2
14:04 47.8 °F /  8.8 °C 39.1 °F /  3.9 °C 29.77in /  1008hPa NW 7.6mph /  12.2km/h 23mph /  37km/h 71.7% 0.00in /  0mm 107 W/m2
14:09 47.7 °F /  8.7 °C 39 °F /  3.9 °C 29.78in /  1008.4hPa NW 10.2mph /  16.4km/h 21mph /  33.8km/h 71.8% 0.00in /  0mm 348 W/m2
14:14 47.7 °F /  8.7 °C 38.9 °F /  3.8 °C 29.78in /  1008.4hPa NW 7.5mph /  12.1km/h 21mph /  33.8km/h 71.3% 0.00in /  0mm 336 W/m2
14:19 47.6 °F /  8.7 °C 38.7 °F /  3.7 °C 29.79in /  1008.7hPa NW 7.2mph /  11.6km/h 21mph /  33.8km/h 71% 0.00in /  0mm 171 W/m2
14:24 47.5 °F /  8.6 °C 38.6 °F /  3.7 °C 29.79in /  1008.7hPa NW 8.1mph /  13km/h 21mph /  33.8km/h 71% 0.00in /  0mm 162 W/m2
14:29 47.5 °F /  8.6 °C 38.6 °F /  3.7 °C 29.80in /  1009hPa NW 5.4mph /  8.7km/h 21mph /  33.8km/h 71.2% 0.00in /  0mm 144 W/m2
14:34 47.5 °F /  8.6 °C 38.4 °F /  3.6 °C 29.80in /  1009hPa NW 10mph /  16.1km/h 21mph /  33.8km/h 70.4% 0.00in /  0mm 195 W/m2
14:39 47.4 °F /  8.6 °C 37.8 °F /  3.2 °C 29.80in /  1009hPa NW 7.4mph /  11.9km/h 21mph /  33.8km/h 69.1% 0.00in /  0mm 199 W/m2
14:44 47.3 °F /  8.5 °C 37.4 °F /  3 °C 29.81in /  1009.4hPa NW 10.5mph /  16.9km/h 24mph /  38.6km/h 68.4% 0.00in /  0mm 67 W/m2
14:49 47 °F /  8.3 °C 37 °F /  2.8 °C 29.82in /  1009.7hPa NW 5.7mph /  9.2km/h 24mph /  38.6km/h 68% 0.00in /  0mm 97 W/m2
14:54 46.8 °F /  8.2 °C 36.8 °F /  2.7 °C 29.82in /  1009.7hPa NW 4.7mph /  7.6km/h 24mph /  38.6km/h 68.2% 0.00in /  0mm 100 W/m2
14:59 46.7 °F /  8.2 °C 37.1 °F /  2.8 °C 29.83in /  1010hPa WNW 6.8mph /  10.9km/h 24mph /  38.6km/h 69% 0.00in /  0mm 77 W/m2
15:04 46.5 °F /  8.1 °C 36.4 °F /  2.4 °C 29.83in /  1010hPa NW 10.7mph /  17.2km/h 24mph /  38.6km/h 67.5% 0.00in /  0mm 77 W/m2
15:09 46.2 °F /  7.9 °C 36 °F /  2.2 °C 29.83in /  1010hPa NW 8.8mph /  14.2km/h 23mph /  37km/h 67.3% 0.00in /  0mm 84 W/m2
15:14 46 °F /  7.8 °C 35.9 °F /  2.2 °C 29.84in /  1010.4hPa NW 7mph /  11.3km/h 23mph /  37km/h 67.6% 0.00in /  0mm 84 W/m2
15:19 45.9 °F /  7.7 °C 36.3 °F /  2.4 °C 29.84in /  1010.4hPa NW 4.4mph /  7.1km/h 23mph /  37km/h 68.9% 0.00in /  0mm 70 W/m2
15:24 45.8 °F /  7.7 °C 36.4 °F /  2.4 °C 29.85in /  1010.7hPa NW 5mph /  8km/h 23mph /  37km/h 69.4% 0.00in /  0mm 51 W/m2
15:29 45.6 °F /  7.6 °C 35.9 °F /  2.2 °C 29.86in /  1011.1hPa NW 5.6mph /  9km/h 23mph /  37km/h 68.5% 0.00in /  0mm 44 W/m2
15:34 45.3 °F /  7.4 °C 35.5 °F /  1.9 °C 29.86in /  1011.1hPa NW 6mph /  9.7km/h 23mph /  37km/h 68.2% 0.00in /  0mm 33 W/m2
15:39 45.1 °F /  7.3 °C 35.2 °F /  1.8 °C 29.86in /  1011.1hPa NW 6mph /  9.7km/h 14mph /  22.5km/h 68% 0.00in /  0mm 26 W/m2
15:44 44.7 °F /  7.1 °C 35 °F /  1.7 °C 29.86in /  1011.1hPa NW 7.2mph /  11.6km/h 16mph /  25.7km/h 68.5% 0.00in /  0mm 18 W/m2
15:49 44.3 °F /  6.8 °C 34.8 °F /  1.6 °C 29.87in /  1011.4hPa NW 10.6mph /  17.1km/h 20mph /  32.2km/h 69% 0.00in /  0mm 16 W/m2
15:54 44 °F /  6.7 °C 34.5 °F /  1.4 °C 29.87in /  1011.4hPa NW 8.3mph /  13.4km/h 20mph /  32.2km/h 69% 0.00in /  0mm 14 W/m2
15:59 43.8 °F /  6.6 °C 34.6 °F /  1.4 °C 29.87in /  1011.4hPa NW 7.1mph /  11.4km/h 20mph /  32.2km/h 69.9% 0.00in /  0mm 14 W/m2
16:00 43.7 °F /  6.5 °C 34.6 °F /  1.4 °C 29.87in /  1011.4hPa NW 1mph /  1.6km/h 20mph /  32.2km/h 70% 0.00in /  0mm 12 W/m2
16:09 43.4 °F /  6.3 °C 34.2 °F /  1.2 °C 29.88in /  1011.7hPa NW 8.5mph /  13.7km/h 19mph /  30.6km/h 70% 0.00in /  0mm 11 W/m2
16:14 43.2 °F /  6.2 °C 34.1 °F /  1.2 °C 29.88in /  1011.7hPa NW 6.8mph /  10.9km/h 19mph /  30.6km/h 70% 0.00in /  0mm 9 W/m2
16:19 43 °F /  6.1 °C 34.2 °F /  1.2 °C 29.88in /  1011.7hPa NW 8.4mph /  13.5km/h 19mph /  30.6km/h 70.9% 0.00in /  0mm 5 W/m2
16:24 42.8 °F /  6 °C 34 °F /  1.1 °C 29.88in /  1011.7hPa NW 10.7mph /  17.2km/h 19mph /  30.6km/h 71% 0.00in /  0mm 0 W/m2
16:29 42.6 °F /  5.9 °C 33.9 °F /  1.1 °C 29.88in /  1011.7hPa NW 12.9mph /  20.8km/h 22mph /  35.4km/h 71% 0.00in /  0mm 0 W/m2
16:34 42.4 °F /  5.8 °C 33.7 °F /  0.9 °C 29.88in /  1011.7hPa NW 9.3mph /  15km/h 22mph /  35.4km/h 71% 0.00in /  0mm 0 W/m2
16:39 42.3 °F /  5.7 °C 33.8 °F /  1 °C 29.89in /  1012.1hPa WNW 5.7mph /  9.2km/h 20mph /  32.2km/h 71.5% 0.00in /  0mm 0 W/m2
16:44 42.2 °F /  5.7 °C 33.7 °F /  0.9 °C 29.90in /  1012.4hPa NW 7.7mph /  12.4km/h 20mph /  32.2km/h 71.8% 0.00in /  0mm 0 W/m2
16:49 42 °F /  5.6 °C 33.8 °F /  1 °C 29.90in /  1012.4hPa WNW 3.9mph /  6.3km/h 20mph /  32.2km/h 72.2% 0.00in /  0mm 0 W/m2
16:54 41.9 °F /  5.5 °C 33.8 °F /  1 °C 29.90in /  1012.4hPa WNW 5mph /  8km/h 20mph /  32.2km/h 72.8% 0.00in /  0mm 0 W/m2
16:59 41.7 °F /  5.4 °C 33.7 °F /  0.9 °C 29.90in /  1012.4hPa WNW 6.8mph /  10.9km/h 20mph /  32.2km/h 72.9% 0.00in /  0mm 0 W/m2
17:04 41.5 °F /  5.3 °C 33.5 °F /  0.8 °C 29.91in /  1012.8hPa WNW 6.8mph /  10.9km/h 20mph /  32.2km/h 73% 0.00in /  0mm 0 W/m2
17:09 41.3 °F /  5.2 °C 33.5 °F /  0.8 °C 29.92in /  1013.1hPa NW 4.2mph /  6.8km/h 14mph /  22.5km/h 73.3% 0.00in /  0mm 0 W/m2
17:14 41.2 °F /  5.1 °C 33.5 °F /  0.8 °C 29.92in /  1013.1hPa WNW 4.5mph /  7.2km/h 14mph /  22.5km/h 74% 0.00in /  0mm 0 W/m2
17:19 41 °F /  5 °C 33.4 °F /  0.8 °C 29.92in /  1013.1hPa WNW 7.3mph /  11.7km/h 14mph /  22.5km/h 74% 0.00in /  0mm 0 W/m2
17:24 41 °F /  5 °C 33.3 °F /  0.7 °C 29.93in /  1013.4hPa WNW 6.2mph /  10km/h 14mph /  22.5km/h 74% 0.00in /  0mm 0 W/m2
17:29 40.9 °F /  4.9 °C 33.3 °F /  0.7 °C 29.93in /  1013.4hPa WNW 4.6mph /  7.4km/h 14mph /  22.5km/h 74% 0.00in /  0mm 0 W/m2
17:34 40.8 °F /  4.9 °C 33.4 °F /  0.8 °C 29.93in /  1013.4hPa WNW 8.9mph /  14.3km/h 14mph /  22.5km/h 74.8% 0.00in /  0mm 0 W/m2
17:39 40.7 °F /  4.8 °C 33.4 °F /  0.8 °C 29.93in /  1013.4hPa WNW 4.3mph /  6.9km/h 14mph /  22.5km/h 75% 0.00in /  0mm 0 W/m2
17:44 40.6 °F /  4.8 °C 33.3 °F /  0.7 °C 29.94in /  1013.8hPa WNW 2.2mph /  3.5km/h 14mph /  22.5km/h 75% 0.00in /  0mm 0 W/m2
17:49 40.4 °F /  4.7 °C 33.1 °F /  0.6 °C 29.95in /  1014.1hPa NW 1.6mph /  2.6km/h 14mph /  22.5km/h 75% 0.00in /  0mm 0 W/m2
17:54 40.3 °F /  4.6 °C 33.3 °F /  0.7 °C 29.95in /  1014.1hPa WNW 2.5mph /  4km/h 14mph /  22.5km/h 76% 0.00in /  0mm 0 W/m2
17:59 40.1 °F /  4.5 °C 33.2 °F /  0.7 °C 29.95in /  1014.1hPa WNW 1.9mph /  3.1km/h 14mph /  22.5km/h 76% 0.00in /  0mm 0 W/m2
18:04 40 °F /  4.4 °C 33.1 °F /  0.6 °C 29.96in /  1014.4hPa WNW 1.2mph /  1.9km/h 14mph /  22.5km/h 76% 0.00in /  0mm 0 W/m2
18:09 39.9 °F /  4.4 °C 33 °F /  0.6 °C 29.96in /  1014.4hPa NNW 0.4mph /  0.6km/h 6mph /  9.7km/h 76% 0.00in /  0mm 0 W/m2
18:14 39.8 °F /  4.3 °C 32.9 °F /  0.5 °C 29.96in /  1014.4hPa Calm   6mph /  9.7km/h 76% 0.00in /  0mm 0 W/m2
18:19 39.7 °F /  4.3 °C 32.8 °F /  0.4 °C 29.96in /  1014.4hPa NNW 0.1mph /  0.2km/h 6mph /  9.7km/h 76% 0.00in /  0mm 0 W/m2
18:24 39.6 °F /  4.2 °C 33 °F /  0.6 °C 29.97in /  1014.8hPa NNW 0.7mph /  1.1km/h 6mph /  9.7km/h 77% 0.00in /  0mm 0 W/m2
18:29 39.4 °F /  4.1 °C 32.8 °F /  0.4 °C 29.97in /  1014.8hPa NNW 1.4mph /  2.3km/h 6mph /  9.7km/h 77% 0.00in /  0mm 0 W/m2
18:34 39.3 °F /  4.1 °C 32.9 °F /  0.5 °C 29.98in /  1015.1hPa NNW 0.4mph /  0.6km/h 6mph /  9.7km/h 77.6% 0.00in /  0mm 0 W/m2
18:39 39.2 °F /  4 °C 32.9 °F /  0.5 °C 29.98in /  1015.1hPa NW 1mph /  1.6km/h 7mph /  11.3km/h 78% 0.00in /  0mm 0 W/m2
18:44 39.1 °F /  3.9 °C 32.9 °F /  0.5 °C 29.98in /  1015.1hPa NW 0.5mph /  0.8km/h 7mph /  11.3km/h 78% 0.00in /  0mm 0 W/m2
18:49 39.1 °F /  3.9 °C 32.8 °F /  0.4 °C 29.98in /  1015.1hPa NW 0.1mph /  0.2km/h 7mph /  11.3km/h 78% 0.00in /  0mm 0 W/m2
18:54 38.9 °F /  3.8 °C 32.7 °F /  0.4 °C 29.99in /  1015.5hPa Calm   7mph /  11.3km/h 78% 0.00in /  0mm 0 W/m2
18:59 38.8 °F /  3.8 °C 32.6 °F /  0.3 °C 29.99in /  1015.5hPa NW 0.2mph /  0.3km/h 7mph /  11.3km/h 78% 0.00in /  0mm 0 W/m2
19:04 38.7 °F /  3.7 °C 32.7 °F /  0.4 °C 29.99in /  1015.5hPa NW 0.5mph /  0.8km/h 7mph /  11.3km/h 78.7% 0.00in /  0mm 0 W/m2
19:09 38.6 °F /  3.7 °C 32.6 °F /  0.3 °C 29.99in /  1015.5hPa NW 0.1mph /  0.2km/h 3mph /  4.8km/h 79% 0.00in /  0mm 0 W/m2
19:14 38.4 °F /  3.6 °C 32.5 °F /  0.3 °C 29.99in /  1015.5hPa NW 0.3mph /  0.5km/h 3mph /  4.8km/h 79% 0.00in /  0mm 0 W/m2
19:19 38.3 °F /  3.5 °C 32.4 °F /  0.2 °C 30.00in /  1015.8hPa Calm   3mph /  4.8km/h 79% 0.00in /  0mm 0 W/m2
19:24 38.2 °F /  3.4 °C 32.4 °F /  0.2 °C 30.00in /  1015.8hPa Calm   3mph /  4.8km/h 79.6% 0.00in /  0mm 0 W/m2
19:29 38 °F /  3.3 °C 32.4 °F /  0.2 °C 30.00in /  1015.8hPa Calm   3mph /  4.8km/h 80% 0.00in /  0mm 0 W/m2
19:34 37.8 °F /  3.2 °C 32.2 °F /  0.1 °C 30.01in /  1016.1hPa Calm   3mph /  4.8km/h 80% 0.00in /  0mm 0 W/m2
19:39 37.5 °F /  3.1 °C 32.1 °F /  0.1 °C 30.01in /  1016.1hPa Calm     80.5% 0.00in /  0mm 0 W/m2
19:44 37.5 °F /  3.1 °C 32.2 °F /  0.1 °C 30.01in /  1016.1hPa Calm     81% 0.00in /  0mm 0 W/m2
19:49 37.4 °F /  3 °C 32.1 °F /  0.1 °C 30.02in /  1016.5hPa Calm     81% 0.00in /  0mm 0 W/m2
19:54 37.2 °F /  2.9 °C 32 °F /  0 °C 30.01in /  1016.1hPa NW 0.4mph /  0.6km/h 2mph /  3.2km/h 81% 0.00in /  0mm 0 W/m2
19:59 37.1 °F /  2.8 °C 31.8 °F /  -0.1 °C 30.01in /  1016.1hPa NW 0.2mph /  0.3km/h 3mph /  4.8km/h 81% 0.00in /  0mm 0 W/m2
20:00 37.1 °F /  2.8 °C 31.8 °F /  -0.1 °C 30.01in /  1016.1hPa Calm   3mph /  4.8km/h 81% 0.00in /  0mm 0 W/m2
20:09 37 °F /  2.8 °C 32 °F /  0 °C 30.02in /  1016.5hPa Calm     82% 0.00in /  0mm 0 W/m2
20:14 36.9 °F /  2.7 °C 32 °F /  0 °C 30.02in /  1016.5hPa NW 0.4mph /  0.6km/h 4mph /  6.4km/h 82% 0.00in /  0mm 0 W/m2
20:19 36.8 °F /  2.7 °C 31.9 °F /  -0.1 °C 30.02in /  1016.5hPa NW 0.4mph /  0.6km/h 4mph /  6.4km/h 82% 0.00in /  0mm 0 W/m2
20:24 36.7 °F /  2.6 °C 31.8 °F /  -0.1 °C 30.02in /  1016.5hPa NW 0.7mph /  1.1km/h 4mph /  6.4km/h 82.1% 0.00in /  0mm 0 W/m2
20:29 36.6 °F /  2.6 °C 32 °F /  0 °C 30.02in /  1016.5hPa NW 0.3mph /  0.5km/h 4mph /  6.4km/h 83% 0.00in /  0mm 0 W/m2
20:34 36.6 °F /  2.6 °C 31.9 °F /  -0.1 °C 30.02in /  1016.5hPa NW 1.4mph /  2.3km/h 6mph /  9.7km/h 83% 0.00in /  0mm 0 W/m2
20:39 36.5 °F /  2.5 °C 31.8 °F /  -0.1 °C 30.02in /  1016.5hPa NW 0.9mph /  1.4km/h 6mph /  9.7km/h 83% 0.00in /  0mm 0 W/m2
20:44 36.5 °F /  2.5 °C 31.8 °F /  -0.1 °C 30.02in /  1016.5hPa Calm   6mph /  9.7km/h 83% 0.00in /  0mm 0 W/m2
20:49 36.4 °F /  2.4 °C 31.7 °F /  -0.2 °C 30.02in /  1016.5hPa NW 1.5mph /  2.4km/h 6mph /  9.7km/h 83% 0.00in /  0mm 0 W/m2
20:54 36.4 °F /  2.4 °C 31.7 °F /  -0.2 °C 30.02in /  1016.5hPa NW 1.3mph /  2.1km/h 6mph /  9.7km/h 83% 0.00in /  0mm 0 W/m2
20:59 36.4 °F /  2.4 °C 31.7 °F /  -0.2 °C 30.02in /  1016.5hPa NW 0.8mph /  1.3km/h 6mph /  9.7km/h 83% 0.00in /  0mm 0 W/m2
21:04 36.4 °F /  2.4 °C 31.7 °F /  -0.2 °C 30.03in /  1016.8hPa Calm   6mph /  9.7km/h 83% 0.00in /  0mm 0 W/m2
21:09 36.3 °F /  2.4 °C 31.7 °F /  -0.2 °C 30.03in /  1016.8hPa NW 0.4mph /  0.6km/h 3mph /  4.8km/h 83% 0.00in /  0mm 0 W/m2
21:14 36.3 °F /  2.4 °C 31.6 °F /  -0.2 °C 30.03in /  1016.8hPa Calm   3mph /  4.8km/h 83% 0.00in /  0mm 0 W/m2
21:19 36.2 °F /  2.3 °C 31.5 °F /  -0.3 °C 30.03in /  1016.8hPa Calm   3mph /  4.8km/h 83% 0.00in /  0mm 0 W/m2
21:24 36 °F /  2.2 °C 31.4 °F /  -0.3 °C 30.04in /  1017.2hPa Calm   3mph /  4.8km/h 83% 0.00in /  0mm 0 W/m2
21:29 35.9 °F /  2.2 °C 31.3 °F /  -0.4 °C 30.04in /  1017.2hPa Calm   3mph /  4.8km/h 83.1% 0.00in /  0mm 0 W/m2
21:34 35.7 °F /  2.1 °C 31.4 °F /  -0.3 °C 30.04in /  1017.2hPa NW 0.5mph /  0.8km/h 4mph /  6.4km/h 84% 0.00in /  0mm 0 W/m2
21:39 35.6 °F /  2 °C 31.3 °F /  -0.4 °C 30.04in /  1017.2hPa NW 0.7mph /  1.1km/h 4mph /  6.4km/h 84% 0.00in /  0mm 0 W/m2
21:44 35.5 °F /  1.9 °C 31.1 °F /  -0.5 °C 30.04in /  1017.2hPa NW 0.4mph /  0.6km/h 4mph /  6.4km/h 84% 0.00in /  0mm 0 W/m2
21:49 35.3 °F /  1.8 °C 31 °F /  -0.6 °C 30.04in /  1017.2hPa NW 1.4mph /  2.3km/h 4mph /  6.4km/h 84% 0.00in /  0mm 0 W/m2
21:54 35.2 °F /  1.8 °C 31.1 °F /  -0.5 °C 30.04in /  1017.2hPa NW 2.3mph /  3.7km/h 6mph /  9.7km/h 84.6% 0.00in /  0mm 0 W/m2
21:59 35.2 °F /  1.8 °C 31.1 °F /  -0.5 °C 30.05in /  1017.5hPa NW 3.3mph /  5.3km/h 7mph /  11.3km/h 85% 0.00in /  0mm 0 W/m2
22:04 35.1 °F /  1.7 °C 31.1 °F /  -0.5 °C 30.05in /  1017.5hPa WNW 2.2mph /  3.5km/h 7mph /  11.3km/h 85% 0.00in /  0mm 0 W/m2
22:09 35.1 °F /  1.7 °C 31.1 °F /  -0.5 °C 30.05in /  1017.5hPa WNW 0.1mph /  0.2km/h 5mph /  8km/h 85% 0.00in /  0mm 0 W/m2
22:14 35.1 °F /  1.7 °C 31.1 °F /  -0.5 °C 30.06in /  1017.8hPa Calm   5mph /  8km/h 85% 0.00in /  0mm 0 W/m2
22:19 35.1 °F /  1.7 °C 31.1 °F /  -0.5 °C 30.06in /  1017.8hPa Calm   5mph /  8km/h 85% 0.00in /  0mm 0 W/m2
22:24 35 °F /  1.7 °C 30.9 °F /  -0.6 °C 30.05in /  1017.5hPa Calm   5mph /  8km/h 85% 0.00in /  0mm 0 W/m2
22:29 34.8 °F /  1.6 °C 30.8 °F /  -0.7 °C 30.06in /  1017.8hPa Calm   5mph /  8km/h 85% 0.00in /  0mm 0 W/m2
22:34 34.7 °F /  1.5 °C 30.7 °F /  -0.7 °C 30.06in /  1017.8hPa Calm   5mph /  8km/h 85% 0.00in /  0mm 0 W/m2
22:39 34.6 °F /  1.4 °C 30.6 °F /  -0.8 °C 30.06in /  1017.8hPa Calm     85% 0.00in /  0mm 0 W/m2
22:44 34.5 °F /  1.4 °C 30.5 °F /  -0.8 °C 30.06in /  1017.8hPa Calm     85.3% 0.00in /  0mm 0 W/m2
22:49 34.4 °F /  1.3 °C 30.6 °F /  -0.8 °C 30.06in /  1017.8hPa WNW 0.3mph /  0.5km/h 5mph /  8km/h 86% 0.00in /  0mm 0 W/m2
22:54 34.3 °F /  1.3 °C 30.5 °F /  -0.8 °C 30.06in /  1017.8hPa WNW 0.8mph /  1.3km/h 5mph /  8km/h 86% 0.00in /  0mm 0 W/m2
22:59 34.2 °F /  1.2 °C 30.5 °F /  -0.8 °C 30.06in /  1017.8hPa WNW 0.3mph /  0.5km/h 5mph /  8km/h 86% 0.00in /  0mm 0 W/m2
23:04 34.2 °F /  1.2 °C 30.6 °F /  -0.8 °C 30.07in /  1018.2hPa WNW 0.5mph /  0.8km/h 5mph /  8km/h 86.5% 0.00in /  0mm 0 W/m2
23:09 34.1 °F /  1.2 °C 30.7 °F /  -0.7 °C 30.08in /  1018.5hPa Calm     87% 0.00in /  0mm 0 W/m2
23:14 34 °F /  1.1 °C 30.6 °F /  -0.8 °C 30.08in /  1018.5hPa Calm     87% 0.00in /  0mm 0 W/m2
23:19 33.9 °F /  1.1 °C 30.3 °F /  -0.9 °C 30.08in /  1018.5hPa Calm     86.4% 0.00in /  0mm 0 W/m2
23:24 33.8 °F /  1 °C 30.4 °F /  -0.9 °C 30.08in /  1018.5hPa WNW 0.3mph /  0.5km/h 3mph /  4.8km/h 87.2% 0.00in /  0mm 0 W/m2
23:29 33.7 °F /  0.9 °C 30.1 °F /  -1.1 °C 30.07in /  1018.2hPa WNW 0.1mph /  0.2km/h 3mph /  4.8km/h 86.5% 0.00in /  0mm 0 W/m2
23:34 33.5 °F /  0.8 °C 30.1 °F /  -1.1 °C 30.08in /  1018.5hPa Calm   3mph /  4.8km/h 87% 0.00in /  0mm 0 W/m2
23:39 33.4 °F /  0.8 °C 30 °F /  -1.1 °C 30.08in /  1018.5hPa WNW 0.1mph /  0.2km/h 3mph /  4.8km/h 87% 0.00in /  0mm 0 W/m2
23:44 33.4 °F /  0.8 °C 30 °F /  -1.1 °C 30.08in /  1018.5hPa WNW 0.4mph /  0.6km/h 3mph /  4.8km/h 87% 0.00in /  0mm 0 W/m2
23:49 33.4 °F /  0.8 °C 30.2 °F /  -1 °C 30.08in /  1018.5hPa Calm   3mph /  4.8km/h 87.9% 0.00in /  0mm 0 W/m2
23:54 33.4 °F /  0.8 °C 30.2 °F /  -1 °C 30.07in /  1018.2hPa WNW 0.4mph /  0.6km/h 4mph /  6.4km/h 88% 0.00in /  0mm 0 W/m2
23:59 33.4 °F /  0.8 °C 30.2 °F /  -1 °C 30.07in /  1018.2hPa Calm   4mph /  6.4km/h 88% 0.00in /  0mm 0 W/m2
Hartford County Weather
Compliments of Weather Underground - 2 mb